Terminal Aerodrome Forecast
Issued by NWS Rapid City, SD

Home | Current Version | Previous Version | Text Only | Print | Product List | Glossary Off
Versions: 1 2 3 4 5 6 7 8 9 10 11 12 13 14 15 16 17

000
FTUS43 KUNR 241700
TAFRAP
TAF
KRAP 241731Z 2418/2518 31020G30KT P6SM SCT050
     FM242000 33035G47KT P6SM SCT050
     FM242300 33024G34KT P6SM SKC
     FM250300 33017KT P6SM SKC=

USA.gov is the U.S. government's official web portal to all federal, state and local government web resources and services.